createdAt,value
2022-09-03T00:03:24.465Z,1015.9
2022-09-03T00:08:24.768Z,1015.9
2022-09-03T00:13:24.241Z,1015.9
2022-09-03T00:18:24.565Z,1015.9
2022-09-03T00:23:24.025Z,1015.8
2022-09-03T00:28:24.289Z,1015.8
2022-09-03T00:33:24.739Z,1015.8
2022-09-03T00:38:24.979Z,1015.8
2022-09-03T00:43:24.476Z,1015.8
2022-09-03T00:48:28.284Z,1015.8
2022-09-03T00:53:24.139Z,1015.8
2022-09-03T00:58:24.486Z,1015.8
2022-09-03T01:03:24.064Z,1015.8
2022-09-03T01:08:24.662Z,1015.8
2022-09-03T01:13:24.024Z,1015.7
2022-09-03T01:18:24.606Z,1015.7
2022-09-03T01:23:24.085Z,1015.8
2022-09-03T01:28:24.399Z,1015.8
2022-09-03T01:33:24.014Z,1015.8
2022-09-03T01:38:24.385Z,1015.8
2022-09-03T01:43:24.806Z,1015.9
2022-09-03T01:48:25.068Z,1015.9
2022-09-03T01:53:24.199Z,1015.8
2022-09-03T01:58:24.626Z,1015.8
2022-09-03T02:03:24.680Z,1015.8
2022-09-03T02:08:25.116Z,1015.8
2022-09-03T02:13:24.375Z,1015.8
2022-09-03T02:18:24.743Z,1015.8
2022-09-03T02:23:24.730Z,1015.8
2022-09-03T02:28:24.948Z,1015.8
2022-09-03T02:33:29.110Z,1015.8
2022-09-03T02:38:24.261Z,1015.8
2022-09-03T02:43:26.075Z,1015.8
2022-09-03T02:48:24.778Z,1015.8
2022-09-03T02:53:24.369Z,1015.7
2022-09-03T02:58:25.178Z,1015.7
2022-09-03T03:03:24.316Z,1015.7
2022-09-03T03:08:24.162Z,1015.7
2022-09-03T03:13:24.712Z,1015.8
2022-09-03T03:18:25.116Z,1015.8
2022-09-03T03:23:24.668Z,1015.7
2022-09-03T03:28:25.035Z,1015.7
2022-09-03T03:33:24.532Z,1015.7
2022-09-03T03:38:24.833Z,1015.7
2022-09-03T03:43:24.818Z,1015.8
2022-09-03T03:48:24.557Z,1015.8
2022-09-03T03:53:24.470Z,1015.8
2022-09-03T03:58:24.890Z,1015.8
2022-09-03T04:03:25.034Z,1015.8
2022-09-03T04:08:24.217Z,1015.8
2022-09-03T04:13:24.999Z,1015.9
2022-09-03T04:18:24.294Z,1015.9
2022-09-03T04:23:24.962Z,1015.8
2022-09-03T04:28:25.208Z,1015.8
2022-09-03T04:33:24.290Z,1015.8
2022-09-03T04:38:24.641Z,1015.8
2022-09-03T04:43:24.315Z,1015.9
2022-09-03T04:48:24.575Z,1015.9
2022-09-03T04:53:24.149Z,1015.8
2022-09-03T04:58:24.275Z,1015.8
2022-09-03T05:03:24.989Z,1015.8
2022-09-03T05:08:24.509Z,1015.8
2022-09-03T05:13:24.133Z,1015.9
2022-09-03T05:18:24.501Z,1015.9
2022-09-03T05:23:24.098Z,1015.9
2022-09-03T05:28:24.376Z,1015.9
2022-09-03T05:33:24.850Z,1015.9
2022-09-03T05:38:25.072Z,1015.9
2022-09-03T05:43:25.069Z,1015.9
2022-09-03T05:48:24.385Z,1015.9
2022-09-03T05:53:24.953Z,1015.8
2022-09-03T05:58:24.472Z,1015.8
2022-09-03T06:03:25.234Z,1015.8
2022-09-03T06:08:24.944Z,1015.8
2022-09-03T06:13:24.391Z,1015.9
2022-09-03T06:18:25.087Z,1015.9
2022-09-03T06:23:24.596Z,1016
2022-09-03T06:28:24.879Z,1016
2022-09-03T06:33:25.126Z,1016
2022-09-03T06:38:24.544Z,1016
2022-09-03T06:43:25.058Z,1015.9
2022-09-03T06:48:25.274Z,1015.9
2022-09-03T06:53:24.565Z,1016
2022-09-03T06:58:24.474Z,1016
2022-09-03T07:03:24.514Z,1015.9
2022-09-03T07:08:24.793Z,1015.9
2022-09-03T07:13:24.231Z,1016.1
2022-09-03T07:18:24.543Z,1016.1
2022-09-03T07:23:25.129Z,1016.1
2022-09-03T07:28:24.471Z,1016.1
2022-09-03T07:33:24.383Z,1016.1
2022-09-03T07:38:24.578Z,1016.1
2022-09-03T07:43:24.703Z,1016.1
2022-09-03T07:48:24.962Z,1016.1
2022-09-03T07:53:24.572Z,1016.1
2022-09-03T07:58:24.681Z,1016.1
2022-09-03T08:03:25.292Z,1016.1
2022-09-03T08:08:25.274Z,1016.1
2022-09-03T08:13:25.025Z,1016.1
2022-09-03T08:18:25.037Z,1016.1
2022-09-03T08:23:24.721Z,1016
2022-09-03T08:28:25.008Z,1016
2022-09-03T08:33:24.305Z,1016
2022-09-03T08:38:24.984Z,1016
2022-09-03T08:43:24.216Z,1015.8
2022-09-03T08:48:25.979Z,1015.8
2022-09-03T08:53:24.664Z,1015.9
2022-09-03T08:58:24.807Z,1015.9
2022-09-03T09:03:24.796Z,1015.9
2022-09-03T09:08:25.369Z,1015.9
2022-09-03T09:13:24.742Z,1015.8
2022-09-03T09:18:25.030Z,1015.8
2022-09-03T09:23:25.049Z,1015.7
2022-09-03T09:28:24.474Z,1015.7
2022-09-03T09:33:25.075Z,1015.7
2022-09-03T09:38:24.523Z,1015.7
2022-09-03T09:43:25.312Z,1015.7
2022-09-03T09:48:24.529Z,1015.7
2022-09-03T09:53:25.143Z,1015.6
2022-09-03T09:58:24.348Z,1015.6
2022-09-03T10:03:24.915Z,1015.6
2022-09-03T10:08:25.162Z,1015.6
2022-09-03T10:13:24.697Z,1015.3
2022-09-03T10:18:26.187Z,1015.3
2022-09-03T10:23:24.480Z,1015.5
2022-09-03T10:28:24.868Z,1015.5
2022-09-03T10:33:24.497Z,1015.5
2022-09-03T10:38:24.913Z,1015.5
2022-09-03T10:43:25.127Z,1015.2
2022-09-03T10:48:25.324Z,1015.2
2022-09-03T10:53:24.851Z,1015.2
2022-09-03T10:58:24.640Z,1015.2
2022-09-03T11:03:25.519Z,1015.2
2022-09-03T11:08:24.931Z,1015.2
2022-09-03T11:13:24.365Z,1015.1
2022-09-03T11:18:24.534Z,1015.1
2022-09-03T11:23:24.993Z,1015.1
2022-09-03T11:28:25.327Z,1015.1
2022-09-03T11:33:24.958Z,1015.1
2022-09-03T11:38:25.172Z,1015.1
2022-09-03T11:43:24.741Z,1015.1
2022-09-03T11:48:24.896Z,1015.1
2022-09-03T11:53:25.401Z,1015
2022-09-03T11:58:24.720Z,1015
2022-09-03T12:03:25.098Z,1015
2022-09-03T12:08:24.308Z,1015
2022-09-03T12:13:24.702Z,1014.7
2022-09-03T12:18:24.943Z,1014.7
2022-09-03T12:23:24.474Z,1014.7
2022-09-03T12:28:24.946Z,1014.7
2022-09-03T12:33:25.377Z,1014.7
2022-09-03T12:38:24.823Z,1014.7
2022-09-03T12:43:39.841Z,1014.7
2022-09-03T12:48:24.835Z,1014.7
2022-09-03T12:53:25.367Z,1014.6
2022-09-03T12:58:24.917Z,1014.6
2022-09-03T13:03:25.365Z,1014.6
2022-09-03T13:08:24.723Z,1014.6
2022-09-03T13:13:24.638Z,1014.3
2022-09-03T13:18:24.915Z,1014.3
2022-09-03T13:23:25.333Z,1014.2
2022-09-03T13:28:24.825Z,1014.2
2022-09-03T13:33:25.169Z,1014.2
2022-09-03T13:38:24.838Z,1014.2
2022-09-03T13:43:25.210Z,1014.2
2022-09-03T13:48:25.392Z,1014.2
2022-09-03T13:53:24.863Z,1014.2
2022-09-03T13:58:24.662Z,1014.2
2022-09-03T14:03:25.036Z,1014.2
2022-09-03T14:08:24.449Z,1014.2
2022-09-03T14:13:24.725Z,1014.2
2022-09-03T14:18:25.189Z,1014.2
2022-09-03T14:23:25.488Z,1014.2
2022-09-03T14:28:24.990Z,1014.2
2022-09-03T14:33:25.481Z,1014.2
2022-09-03T14:38:25.973Z,1014.2
2022-09-03T14:43:25.143Z,1014.1
2022-09-03T14:48:24.467Z,1014.1
2022-09-03T14:53:25.025Z,1014.1
2022-09-03T14:58:25.392Z,1014.1
2022-09-03T15:03:25.295Z,1014.1
2022-09-03T15:08:25.197Z,1014.1
2022-09-03T15:13:26.119Z,1014.1
2022-09-03T15:18:25.171Z,1014.1
2022-09-03T15:23:25.469Z,1014.1
2022-09-03T15:28:25.218Z,1014.1
2022-09-03T15:33:25.266Z,1014.1
2022-09-03T15:38:25.095Z,1014.1
2022-09-03T15:43:24.837Z,1014.1
2022-09-03T15:48:24.614Z,1014.1
2022-09-03T15:53:25.040Z,1014.1
2022-09-03T15:58:24.930Z,1014.1
2022-09-03T16:03:25.858Z,1014.1
2022-09-03T16:08:25.237Z,1014.1
2022-09-03T16:13:24.838Z,1014.1
2022-09-03T16:18:25.382Z,1014.1
2022-09-03T16:23:24.884Z,1014.2
2022-09-03T16:28:25.195Z,1014.2
2022-09-03T16:33:25.225Z,1014.2
2022-09-03T16:38:24.722Z,1014.2
2022-09-03T16:43:40.127Z,1014.2
2022-09-03T16:48:24.779Z,1014.2
2022-09-03T16:53:25.188Z,1014.3
2022-09-03T16:58:25.423Z,1014.3
2022-09-03T17:03:26.440Z,1014.3
2022-09-03T17:08:25.183Z,1014.3
2022-09-03T17:13:24.774Z,1014.3
2022-09-03T17:18:25.245Z,1014.3
2022-09-03T17:23:25.664Z,1014.4
2022-09-03T17:28:25.478Z,1014.4
2022-09-03T17:33:24.887Z,1014.4
2022-09-03T17:38:25.258Z,1014.4
2022-09-03T17:43:24.591Z,1014.3
2022-09-03T17:48:25.062Z,1014.3
2022-09-03T17:53:25.389Z,1014.4
2022-09-03T17:58:24.730Z,1014.4
2022-09-03T18:03:24.884Z,1014.5
2022-09-03T18:08:25.072Z,1014.5
2022-09-03T18:13:26.240Z,1014.7
2022-09-03T18:18:24.846Z,1014.7
2022-09-03T18:23:25.288Z,1014.8
2022-09-03T18:28:26.064Z,1014.8
2022-09-03T18:33:25.557Z,1014.8
2022-09-03T18:38:25.204Z,1014.8
2022-09-03T18:43:25.561Z,1015
2022-09-03T18:48:25.300Z,1015
2022-09-03T18:53:29.451Z,1015.2
2022-09-03T18:58:24.917Z,1015.2
2022-09-03T19:03:25.134Z,1015.2
2022-09-03T19:08:25.559Z,1015.2
2022-09-03T19:13:24.891Z,1015.3
2022-09-03T19:18:24.869Z,1015.3
2022-09-03T19:23:25.074Z,1015.4
2022-09-03T19:28:24.793Z,1015.4
2022-09-03T19:33:29.916Z,1015.4
2022-09-03T19:38:25.129Z,1015.4
2022-09-03T19:43:25.441Z,1015.5
2022-09-03T19:48:24.607Z,1015.5
2022-09-03T19:53:25.095Z,1015.5
2022-09-03T19:58:42.146Z,1015.5
2022-09-03T20:03:24.590Z,1015.5
2022-09-03T20:08:29.729Z,1015.5
2022-09-03T20:13:24.836Z,1015.6
2022-09-03T20:18:25.065Z,1015.6
2022-09-03T20:23:25.393Z,1015.7
2022-09-03T20:28:25.661Z,1015.7
2022-09-03T20:33:25.858Z,1015.7
2022-09-03T20:38:25.160Z,1015.7
2022-09-03T20:43:25.618Z,1015.8
2022-09-03T20:48:24.879Z,1015.8
2022-09-03T20:53:25.446Z,1015.8
2022-09-03T20:58:25.209Z,1015.8
2022-09-03T21:03:25.424Z,1015.8
2022-09-03T21:08:24.923Z,1015.8
2022-09-03T21:13:25.404Z,1015.9
2022-09-03T21:18:24.735Z,1015.9
2022-09-03T21:23:24.976Z,1015.8
2022-09-03T21:28:25.536Z,1015.8
2022-09-03T21:33:25.276Z,1015.8
2022-09-03T21:38:25.961Z,1015.8
2022-09-03T21:43:25.489Z,1015.9
2022-09-03T21:48:25.735Z,1015.9
2022-09-03T21:53:25.109Z,1016
2022-09-03T21:58:25.280Z,1016
2022-09-03T22:03:24.677Z,1016
2022-09-03T22:08:24.913Z,1016
2022-09-03T22:13:25.377Z,1016.2
2022-09-03T22:18:28.788Z,1016.2
2022-09-03T22:23:24.974Z,1016.2
2022-09-03T22:28:25.083Z,1016.2
2022-09-03T22:33:25.488Z,1016.2
2022-09-03T22:38:25.683Z,1016.2
2022-09-03T22:43:25.160Z,1016.2
2022-09-03T22:48:24.829Z,1016.2
2022-09-03T22:53:25.676Z,1016.2
2022-09-03T22:58:24.991Z,1016.2
2022-09-03T23:03:24.788Z,1016.2
2022-09-03T23:08:25.110Z,1016.2
2022-09-03T23:13:25.561Z,1016.2
2022-09-03T23:18:24.881Z,1016.2
2022-09-03T23:23:25.097Z,1016.3
2022-09-03T23:28:25.452Z,1016.3
2022-09-03T23:33:24.806Z,1016.4
2022-09-03T23:38:25.119Z,1016.4
2022-09-03T23:43:24.692Z,1016.3
2022-09-03T23:48:25.050Z,1016.3
2022-09-03T23:53:25.452Z,1016.4
2022-09-03T23:58:25.662Z,1016.4
